Time;durP1;ratioP1;P1;durP2;ratioP2;P2;SDS_P1;SDS_P2;PMS_P1;PMS_P2;Temp;Humidity;BMP_temperature;BMP_pressure;BME280_temperature;BME280_humidity;BME280_pressure;Samples;Min_cycle;Max_cycle;Signal;HPM_P1;HPM_P2
2021/12/15 00:02:04;;;;;;;;;12.00;11.00;;;;;18.35;62.46;102878.94;5070720;28;9452;-65
2021/12/15 00:04:29;;;;;;;;;8.00;8.00;;;;;18.41;62.64;102885.25;5072243;28;8756;-65
2021/12/15 00:06:55;;;;;;;;;8.67;8.67;;;;;18.39;62.63;102879.91;5071769;28;9326;-66
2021/12/15 00:09:20;;;;;;;;;6.00;6.00;;;;;18.42;62.66;102882.63;5071776;28;8789;-65
2021/12/15 00:11:46;;;;;;;;;8.00;7.00;;;;;18.41;62.55;102885.25;5072174;28;8767;-65
2021/12/15 00:14:18;;;;;;;;;6.33;6.33;;;;;18.41;62.71;102883.47;5072166;28;9471;-65
2021/12/15 00:16:44;;;;;;;;;9.33;8.00;;;;;18.39;62.55;102881.66;5071351;28;8908;-66
2021/12/15 00:19:09;;;;;;;;;8.33;8.33;;;;;18.40;62.67;102886.09;5072220;28;9290;-66
2021/12/15 00:21:35;;;;;;;;;6.00;6.00;;;;;18.39;62.69;102882.56;5072090;28;9326;-65
2021/12/15 00:24:03;;;;;;;;;8.50;7.00;;;;;18.38;62.63;102878.13;5071366;28;8841;-66
2021/12/15 00:26:29;;;;;;;;;8.67;8.67;;;;;18.42;62.45;102889.66;5072160;28;8806;-65
2021/12/15 00:28:54;;;;;;;;;10.00;9.00;;;;;18.44;62.61;102894.13;5071183;28;9299;-65
2021/12/15 00:31:21;;;;;;;;;8.00;7.00;;;;;18.44;62.46;102887.94;5071129;28;8775;-65
2021/12/15 00:33:47;;;;;;;;;7.67;7.00;;;;;18.41;62.43;102883.47;5071691;28;8760;-65
2021/12/15 00:36:14;;;;;;;;;7.33;7.33;;;;;18.35;62.73;102878.06;5071697;28;9440;-66
2021/12/15 00:38:40;;;;;;;;;8.33;7.33;;;;;18.44;62.51;102882.66;5070892;28;8759;-66
2021/12/15 00:41:09;;;;;;;;;9.00;8.00;;;;;18.44;62.29;102882.66;5071903;28;9247;-66
2021/12/15 00:43:35;;;;;;;;;6.50;6.50;;;;;18.41;62.43;102887.88;5071076;28;9380;-66
2021/12/15 00:46:00;;;;;;;;;7.67;7.67;;;;;18.40;62.68;102886.09;5071275;28;9479;-66
2021/12/15 00:48:27;;;;;;;;;9.67;8.33;;;;;18.43;62.62;102883.50;5071498;28;11402;-66
2021/12/15 00:50:52;;;;;;;;;7.33;7.33;;;;;18.43;62.44;102884.41;5070748;28;8771;-66
2021/12/15 00:53:18;;;;;;;;;6.00;6.00;;;;;18.40;62.49;102883.44;5071685;28;9321;-66
2021/12/15 00:55:43;;;;;;;;;9.25;7.75;;;;;18.43;62.73;102886.16;5070964;28;8814;-66
2021/12/15 00:58:10;;;;;;;;;9.00;9.00;;;;;18.44;62.56;102883.56;5070864;28;8767;-66
2021/12/15 01:00:42;;;;;;;;;8.00;8.00;;;;;18.42;62.60;102884.34;5071439;28;8782;-66
2021/12/15 01:03:08;;;;;;;;;7.75;7.75;;;;;18.42;62.46;102882.63;5071094;28;9301;-65
2021/12/15 01:05:37;;;;;;;;;5.50;5.00;;;;;18.42;62.77;102887.91;5071015;28;9361;-66
2021/12/15 01:08:07;;;;;;;;;9.00;7.67;;;;;18.43;62.76;102892.34;5070946;28;10211;-66
2021/12/15 01:10:52;;;;;;;;;10.00;10.00;;;;;18.40;62.65;102883.44;5070978;28;9148;-66
2021/12/15 01:21:32;;;;;;;;;9.75;8.00;;;;;18.38;62.42;102882.50;5071166;28;9307;-66
2021/12/15 01:23:57;;;;;;;;;8.67;8.67;;;;;18.41;62.64;102893.19;5070926;28;9319;-66
2021/12/15 01:26:22;;;;;;;;;7.67;7.67;;;;;18.41;62.60;102888.75;5070551;28;8791;-66
2021/12/15 01:28:48;;;;;;;;;7.33;7.33;;;;;18.41;62.67;102891.41;5071039;28;8848;-65
2021/12/15 01:31:13;;;;;;;;;9.00;8.75;;;;;18.37;62.51;102881.59;5070554;28;8818;-64
2021/12/15 01:33:39;;;;;;;;;9.25;8.25;;;;;18.34;62.64;102879.78;5070541;28;8776;-65
2021/12/15 01:36:06;;;;;;;;;8.00;8.00;;;;;18.42;62.53;102890.53;5070748;28;8803;-65
2021/12/15 01:38:34;;;;;;;;;7.25;6.50;;;;;18.35;62.38;102884.25;5070588;28;9307;-65
2021/12/15 01:41:00;;;;;;;;;9.33;8.67;;;;;18.33;62.74;102878.00;5070530;28;10119;-66
2021/12/15 01:49:10;;;;;;;;;6.67;6.67;;;;;18.40;62.92;102891.38;5070462;28;9195;-66
2021/12/15 01:51:35;;;;;;;;;8.00;8.00;;;;;18.43;62.54;102899.38;5071062;28;9059;-66
2021/12/15 01:54:02;;;;;;;;;11.00;9.67;;;;;18.41;62.45;102891.41;5069918;28;9314;-66
2021/12/15 01:56:30;;;;;;;;;7.00;7.00;;;;;18.41;62.61;102899.34;5070798;28;8803;-66
2021/12/15 01:58:57;;;;;;;;;7.00;7.00;;;;;18.44;62.58;102901.16;5070492;28;9285;-65
2021/12/15 02:01:22;;;;;;;;;11.50;10.00;;;;;18.38;62.80;102898.38;5070072;28;9167;-65
2021/12/15 02:03:48;;;;;;;;;7.00;7.00;;;;;18.41;62.52;102912.56;5070467;28;9343;-66
2021/12/15 02:06:14;;;;;;;;;9.67;8.67;;;;;18.43;62.59;102923.19;5070245;28;8776;-67
2021/12/15 02:08:41;;;;;;;;;7.33;7.33;;;;;18.36;62.80;102906.28;5069904;28;8837;-66
2021/12/15 02:11:08;;;;;;;;;10.00;10.00;;;;;18.34;62.64;102908.88;5070646;28;8787;-66
2021/12/15 02:13:34;;;;;;;;;7.00;6.00;;;;;18.41;62.63;102915.19;5070560;28;9321;-66
2021/12/15 02:16:01;;;;;;;;;9.50;8.75;;;;;18.42;62.41;102918.75;5069566;28;9398;-66
2021/12/15 02:18:30;;;;;;;;;9.00;8.75;;;;;18.38;62.66;102919.53;5070641;28;8763;-66
2021/12/15 02:21:08;;;;;;;;;7.00;7.00;;;;;18.40;62.75;102920.47;5070147;28;9287;-65
2021/12/15 02:23:41;;;;;;;;;8.50;8.50;;;;;18.40;62.77;102918.72;5070281;28;9318;-65
2021/12/15 02:26:12;;;;;;;;;10.25;10.25;;;;;18.39;62.71;102919.59;5074099;28;9367;-65
2021/12/15 02:28:39;;;;;;;;;7.00;6.00;;;;;18.42;62.68;102924.03;5074285;28;9539;-65
2021/12/15 02:31:14;;;;;;;;;10.50;10.50;;;;;18.37;62.57;102907.19;5073587;28;10110;-65
2021/12/15 02:34:09;;;;;;;;;7.50;7.00;;;;;18.37;62.77;102915.13;5073907;28;9516;-65
2021/12/15 02:39:18;;;;;;;;;8.00;8.00;;;;;18.42;62.70;102908.16;5074039;28;9217;-65
2021/12/15 02:41:45;;;;;;;;;8.00;8.00;;;;;18.40;62.69;102910.78;5073458;28;9325;-64
2021/12/15 02:44:19;;;;;;;;;8.25;8.25;;;;;18.40;62.48;102917.84;5073551;28;8777;-65
2021/12/15 02:46:45;;;;;;;;;7.00;7.00;;;;;18.43;62.33;102920.53;5073511;28;9402;-65
2021/12/15 02:49:14;;;;;;;;;9.75;8.75;;;;;18.40;62.69;102916.09;5073423;28;9302;-65
2021/12/15 02:51:46;;;;;;;;;6.00;6.00;;;;;18.40;62.61;102915.19;5073290;28;9391;-67
2021/12/15 02:54:14;;;;;;;;;7.00;7.00;;;;;18.43;62.60;102918.78;5073751;28;9909;-66
2021/12/15 02:56:41;;;;;;;;;11.00;11.00;;;;;18.42;62.53;102910.81;5072876;28;9552;-66
2021/12/15 02:59:08;;;;;;;;;9.33;9.33;;;;;18.39;62.45;102918.69;5072930;28;9316;-66
2021/12/15 03:04:30;;;;;;;;;7.00;7.00;;;;;18.41;62.72;102909.03;5072907;28;9335;-65
2021/12/15 03:07:09;;;;;;;;;8.33;8.33;;;;;18.35;63.01;102910.69;5075309;28;9261;-66
2021/12/15 03:17:53;;;;;;;;;10.00;7.00;;;;;18.41;62.72;102927.56;5073036;28;9482;-65
2021/12/15 03:20:19;;;;;;;;;6.33;6.33;;;;;18.42;62.61;102927.56;5072921;28;9259;-65
2021/12/15 03:22:45;;;;;;;;;8.75;8.25;;;;;18.39;62.46;102919.59;5073146;28;9339;-66
2021/12/15 03:25:13;;;;;;;;;6.67;6.00;;;;;18.40;62.85;102928.41;5075450;28;8790;-66
2021/12/15 03:36:05;;;;;;;;;8.00;8.00;;;;;18.39;62.64;102922.22;5072274;28;9175;-66
2021/12/15 03:38:31;;;;;;;;;7.00;7.00;;;;;18.40;62.60;102924.03;5072041;28;9119;-67
2021/12/15 03:40:57;;;;;;;;;6.67;6.67;;;;;18.39;62.64;102924.88;5072087;28;9988;-66
2021/12/15 03:43:22;;;;;;;;;8.75;8.75;;;;;18.41;62.91;102927.56;5072657;28;9390;-66
2021/12/15 03:45:55;;;;;;;;;9.00;8.67;;;;;18.38;62.87;102935.41;5072469;28;8868;-66
2021/12/15 03:48:24;;;;;;;;;7.00;7.00;;;;;18.38;62.77;102930.09;5072347;28;8750;-66
2021/12/15 03:50:51;;;;;;;;;6.67;6.67;;;;;18.41;62.49;102927.56;5072515;28;9241;-66
2021/12/15 03:53:24;;;;;;;;;9.00;6.33;;;;;18.38;62.58;102924.81;5072477;28;9161;-66
2021/12/15 03:55:50;;;;;;;;;6.33;6.33;;;;;18.39;62.78;102922.22;5072321;28;9274;-66
2021/12/15 03:58:23;;;;;;;;;8.33;8.33;;;;;18.40;62.54;102939.88;5072302;28;9180;-65
2021/12/15 04:00:53;;;;;;;;;9.33;8.00;;;;;18.40;62.68;102934.59;5071830;28;9245;-66
2021/12/15 04:03:32;;;;;;;;;7.00;7.00;;;;;18.41;62.76;102940.78;5072632;28;9255;-65
2021/12/15 04:06:00;;;;;;;;;8.00;7.67;;;;;18.41;62.66;102941.66;5072038;28;9339;-65
2021/12/15 04:08:28;;;;;;;;;8.25;8.25;;;;;18.41;62.76;102940.78;5071518;28;9984;-65
2021/12/15 04:10:55;;;;;;;;;8.75;8.75;;;;;18.36;62.65;102935.38;5071977;28;9411;-65
2021/12/15 04:13:21;;;;;;;;;8.33;7.33;;;;;18.38;62.83;102936.28;5071821;28;9385;-65
2021/12/15 04:15:53;;;;;;;;;11.00;9.00;;;;;18.39;62.62;102942.47;5071590;28;9277;-66
2021/12/15 04:18:19;;;;;;;;;7.33;7.33;;;;;18.38;62.83;102932.75;5071868;28;8847;-66
2021/12/15 04:20:44;;;;;;;;;7.33;7.00;;;;;18.39;62.70;102943.38;5071121;28;9267;-66
2021/12/15 04:23:12;;;;;;;;;7.67;6.67;;;;;18.38;62.56;102938.03;5071511;28;8794;-66
2021/12/15 04:25:43;;;;;;;;;7.00;7.00;;;;;18.39;62.84;102939.84;5072163;28;8798;-66
2021/12/15 04:28:10;;;;;;;;;5.67;5.67;;;;;18.42;62.79;102942.53;5071383;28;9235;-66
2021/12/15 04:30:39;;;;;;;;;7.67;7.67;;;;;18.40;62.99;102942.53;5071462;28;9155;-66
2021/12/15 04:33:12;;;;;;;;;8.00;8.00;;;;;18.41;62.58;102951.38;5071495;28;9454;-66
2021/12/15 04:35:39;;;;;;;;;7.67;7.33;;;;;18.40;62.79;102944.28;5071166;28;9433;-66
2021/12/15 04:38:04;;;;;;;;;8.00;7.00;;;;;18.40;62.91;102947.81;5071817;28;9246;-66
2021/12/15 04:40:33;;;;;;;;;7.33;7.33;;;;;18.42;62.52;102954.03;5071636;28;9241;-66
2021/12/15 04:42:59;;;;;;;;;6.00;5.00;;;;;18.40;62.68;102947.81;5070850;28;8792;-66
2021/12/15 04:45:25;;;;;;;;;7.00;6.75;;;;;18.40;62.82;102946.94;5071753;28;9252;-66
2021/12/15 04:47:51;;;;;;;;;8.75;6.75;;;;;18.39;62.70;102950.41;5070337;28;9409;-66
2021/12/15 04:50:23;;;;;;;;;6.00;6.00;;;;;18.41;62.69;102956.66;5071179;28;9322;-66
2021/12/15 04:52:49;;;;;;;;;7.33;7.33;;;;;18.40;62.63;102946.94;5071410;28;8754;-65
2021/12/15 04:55:15;;;;;;;;;6.33;6.33;;;;;18.40;62.78;102947.81;5071384;28;9236;-66
2021/12/15 04:57:43;;;;;;;;;7.67;7.67;;;;;18.39;62.78;102953.97;5070520;28;9189;-65
2021/12/15 05:00:17;;;;;;;;;6.67;6.67;;;;;18.38;62.88;102952.16;5070724;28;8789;-66
2021/12/15 05:02:42;;;;;;;;;6.33;6.33;;;;;18.38;62.77;102951.25;5070702;28;9248;-66
2021/12/15 05:05:09;;;;;;;;;7.67;7.67;;;;;18.37;62.39;102954.78;5070930;28;9326;-65
2021/12/15 05:07:36;;;;;;;;;8.00;5.00;;;;;18.41;62.60;102969.88;5071346;28;8777;-65
2021/12/15 05:10:04;;;;;;;;;5.33;5.33;;;;;18.33;62.68;102951.19;5070847;28;9096;-66
2021/12/15 05:12:29;;;;;;;;;6.33;6.33;;;;;18.31;62.50;102947.59;5070936;28;9258;-65
2021/12/15 05:14:55;;;;;;;;;6.00;6.00;;;;;18.38;62.75;102954.81;5070825;28;9251;-65
2021/12/15 05:17:20;;;;;;;;;7.33;7.00;;;;;18.40;62.79;102962.78;5071164;28;8790;-66
2021/12/15 05:19:47;;;;;;;;;7.33;7.33;;;;;18.40;62.62;102955.75;5070411;28;8771;-67
2021/12/15 05:22:14;;;;;;;;;6.00;6.00;;;;;18.39;62.61;102967.19;5071380;28;8843;-66
2021/12/15 05:24:40;;;;;;;;;8.00;8.00;;;;;18.37;62.80;102958.31;5070661;28;9084;-66
2021/12/15 05:27:11;;;;;;;;;4.33;4.33;;;;;18.41;62.42;102970.75;5070491;28;9204;-65
2021/12/15 05:29:42;;;;;;;;;11.00;9.00;;;;;18.37;62.74;102968.03;5070705;28;9235;-66
2021/12/15 05:32:09;;;;;;;;;5.00;5.00;;;;;18.40;62.69;102968.97;5070279;28;9273;-65
2021/12/15 05:34:35;;;;;;;;;7.00;6.00;;;;;18.39;62.72;102961.91;5070791;28;9327;-65
2021/12/15 05:37:00;;;;;;;;;7.00;5.00;;;;;18.41;62.69;102968.09;5070304;28;9989;-65
2021/12/15 05:39:26;;;;;;;;;6.33;6.33;;;;;18.41;62.62;102960.16;5070526;28;9338;-65
2021/12/15 05:41:53;;;;;;;;;7.33;6.33;;;;;18.41;62.78;102962.81;5070783;28;8778;-65
2021/12/15 05:44:20;;;;;;;;;7.67;7.67;;;;;18.39;62.79;102966.28;5070451;28;8774;-66
2021/12/15 05:46:46;;;;;;;;;7.67;7.00;;;;;18.39;62.78;102969.81;5070124;28;9182;-66
2021/12/15 05:49:12;;;;;;;;;7.00;6.33;;;;;18.39;62.77;102975.13;5070822;28;9329;-66
2021/12/15 05:51:38;;;;;;;;;11.00;6.67;;;;;18.40;62.81;102968.09;5070769;28;8770;-65
2021/12/15 05:54:08;;;;;;;;;8.00;8.00;;;;;18.40;62.69;102970.72;5069766;28;9279;-66
2021/12/15 05:56:33;;;;;;;;;8.00;8.00;;;;;18.41;62.85;102970.75;5070261;28;9382;-67
2021/12/15 05:58:58;;;;;;;;;6.67;6.67;;;;;18.41;62.38;102975.16;5072709;28;9363;-66
2021/12/15 06:01:24;;;;;;;;;8.00;8.00;;;;;18.40;62.97;102974.28;5074417;28;8778;-66
2021/12/15 06:03:49;;;;;;;;;6.00;5.00;;;;;18.37;62.57;102976.81;5074723;28;9525;-65
2021/12/15 06:06:15;;;;;;;;;6.00;6.00;;;;;18.36;62.97;102967.13;5074477;28;8892;-64
2021/12/15 06:08:40;;;;;;;;;6.67;6.67;;;;;18.37;62.54;102968.03;5073731;28;8774;-65
2021/12/15 06:11:08;;;;;;;;;5.67;5.67;;;;;18.39;62.62;102971.56;5074585;28;8766;-65
2021/12/15 06:13:35;;;;;;;;;6.33;6.33;;;;;18.32;62.63;102968.81;5074541;28;8770;-66
2021/12/15 06:16:01;;;;;;;;;5.67;5.67;;;;;18.33;62.75;102962.63;5073492;28;9314;-66
2021/12/15 06:18:26;;;;;;;;;6.00;6.00;;;;;18.39;62.63;102979.50;5074477;28;9093;-65
2021/12/15 06:20:54;;;;;;;;;6.67;5.33;;;;;18.38;62.75;102983.91;5074149;28;8779;-65
2021/12/15 06:23:20;;;;;;;;;6.00;6.00;;;;;18.38;62.51;102977.72;5074105;28;8770;-66
2021/12/15 06:25:52;;;;;;;;;9.67;8.67;;;;;18.35;62.96;102981.19;5073960;28;9339;-66
2021/12/15 06:28:18;;;;;;;;;6.00;6.00;;;;;18.39;62.93;102984.81;5073762;28;9312;-66
2021/12/15 06:30:44;;;;;;;;;6.00;6.00;;;;;18.40;62.90;102986.59;5074116;28;9265;-67
2021/12/15 06:33:11;;;;;;;;;8.67;8.67;;;;;18.35;62.47;102986.47;5074317;28;9212;-66
2021/12/15 06:35:36;;;;;;;;;5.67;5.67;;;;;18.34;62.79;102987.31;5073704;28;10085;-66
2021/12/15 06:38:03;;;;;;;;;8.33;7.00;;;;;18.39;62.85;102988.34;5073636;28;9158;-66
2021/12/15 06:40:29;;;;;;;;;4.00;4.00;;;;;18.37;62.78;102997.97;5073836;28;8786;-66
2021/12/15 06:42:54;;;;;;;;;5.33;5.00;;;;;18.24;62.81;102980.94;5073316;28;9246;-66
2021/12/15 06:45:24;;;;;;;;;6.00;6.00;;;;;18.35;62.80;102997.97;5073942;28;8762;-66
2021/12/15 06:58:49;;;;;;;;;7.00;7.00;;;;;18.37;62.82;103012.97;5073293;28;9133;-65
2021/12/15 07:01:14;;;;;;;;;7.00;7.00;;;;;18.36;62.39;103012.09;5073120;28;9332;-65
2021/12/15 07:03:40;;;;;;;;;6.33;6.00;;;;;18.32;62.64;103003.19;5072890;28;8770;-65
2021/12/15 07:06:05;;;;;;;;;6.00;6.00;;;;;18.38;62.59;103015.63;5073492;28;8924;-66
2021/12/15 07:08:31;;;;;;;;;6.67;6.67;;;;;18.32;62.58;103012.84;5073061;28;8786;-66
2021/12/15 07:10:59;;;;;;;;;6.33;6.33;;;;;18.38;62.93;103020.94;5072125;28;8800;-66
2021/12/15 07:13:28;;;;;;;;;6.33;6.33;;;;;18.35;62.45;103019.13;5073507;28;8774;-66
2021/12/15 07:16:06;;;;;;;;;7.00;7.00;;;;;18.36;62.80;103017.38;5072973;28;9215;-67
2021/12/15 07:18:40;;;;;;;;;8.33;7.67;;;;;18.39;62.71;103013.88;5072637;28;9174;-66
2021/12/15 07:21:10;;;;;;;;;9.00;7.00;;;;;18.34;62.74;103019.06;5073333;28;9397;-66
2021/12/15 07:23:37;;;;;;;;;7.33;7.33;;;;;18.37;62.86;103016.50;5073072;28;9162;-65
2021/12/15 07:26:03;;;;;;;;;6.00;6.00;;;;;18.33;62.89;103014.66;5072234;28;9340;-66
2021/12/15 07:28:29;;;;;;;;;7.00;5.33;;;;;18.38;62.66;103025.31;5073072;28;9003;-65
2021/12/15 07:30:54;;;;;;;;;3.00;3.00;;;;;18.32;62.79;103012.84;5072377;28;8953;-66
2021/12/15 07:33:20;;;;;;;;;4.67;4.33;;;;;18.34;62.83;103016.41;5072069;28;8818;-65
2021/12/15 07:35:45;;;;;;;;;5.67;5.67;;;;;18.41;62.77;103039.50;5072726;28;8806;-66
2021/12/15 07:38:11;;;;;;;;;7.00;6.33;;;;;18.42;63.25;103016.59;5072724;28;8785;-66
2021/12/15 07:40:42;;;;;;;;;5.33;5.33;;;;;18.47;64.17;103026.44;5072292;28;8774;-66
2021/12/15 07:43:13;;;;;;;;;6.67;6.67;;;;;18.43;64.68;103014.00;5072487;28;8775;-66
2021/12/15 07:45:55;;;;;;;;;10.33;9.33;;;;;18.50;64.49;103017.69;5072631;28;9105;-65
2021/12/15 07:48:23;;;;;;;;;7.33;7.33;;;;;18.55;64.95;103024.03;5072636;28;9154;-66
2021/12/15 07:50:52;;;;;;;;;9.00;9.00;;;;;18.57;66.15;103033.78;5072009;28;9167;-66
2021/12/15 07:53:18;;;;;;;;;9.00;9.00;;;;;18.58;65.90;103034.69;5071628;28;9362;-66
2021/12/15 07:55:48;;;;;;;;;10.67;8.33;;;;;18.57;66.84;103035.53;5065123;28;9354;-65
2021/12/15 07:58:14;;;;;;;;;9.00;7.00;;;;;18.51;66.65;103027.41;5065739;28;9962;-65
2021/12/15 08:00:42;;;;;;;;;9.00;8.33;;;;;18.51;66.71;103033.66;5071237;28;9244;-65
2021/12/15 08:03:14;;;;;;;;;9.67;9.67;;;;;18.43;66.32;103018.41;5072288;28;8774;-65
2021/12/15 08:05:41;;;;;;;;;7.75;7.75;;;;;18.48;66.63;103035.28;5071664;28;9188;-65
2021/12/15 08:08:06;;;;;;;;;7.00;7.00;;;;;18.50;66.35;103038.84;5071776;28;9348;-64
2021/12/15 08:10:33;;;;;;;;;12.00;10.00;;;;;18.44;66.75;103031.69;5071261;28;10050;-64
2021/12/15 08:12:58;;;;;;;;;7.00;6.00;;;;;18.50;66.69;103044.13;5071473;28;8822;-65
2021/12/15 08:15:26;;;;;;;;;10.67;8.67;;;;;18.47;66.38;103042.31;5069674;28;9238;-65
2021/12/15 08:17:52;;;;;;;;;9.67;9.67;;;;;18.46;66.26;103037.88;5071331;28;8805;-64
2021/12/15 08:20:22;;;;;;;;;9.00;7.67;;;;;18.49;66.57;103037.06;5071791;28;9232;-63
2021/12/15 08:22:47;;;;;;;;;15.33;11.33;;;;;18.48;66.14;103043.22;5070140;28;11128;-64
2021/12/15 08:25:14;;;;;;;;;9.33;9.00;;;;;18.48;66.42;103053.81;5069918;28;9278;-64
2021/12/15 08:27:40;;;;;;;;;10.33;10.33;;;;;18.48;66.27;103057.34;5070489;28;8850;-65
2021/12/15 08:30:09;;;;;;;;;10.00;10.00;;;;;18.48;65.92;103049.41;5071603;28;9300;-64
2021/12/15 08:32:35;;;;;;;;;10.75;9.50;;;;;18.50;65.75;103049.44;5071005;28;11593;-65
2021/12/15 08:35:00;;;;;;;;;10.67;10.00;;;;;18.49;65.83;103056.47;5068661;28;9413;-65
2021/12/15 08:37:26;;;;;;;;;10.33;9.33;;;;;18.43;65.79;103053.69;5070582;28;10339;-64
2021/12/15 08:39:51;;;;;;;;;11.50;8.50;;;;;18.48;65.83;103062.63;5070272;28;8793;-64
2021/12/15 08:42:16;;;;;;;;;8.33;8.33;;;;;18.49;65.95;103056.47;5071191;28;8785;-65
2021/12/15 08:44:42;;;;;;;;;13.00;11.00;;;;;18.45;65.82;103051.97;5067014;28;8846;-65
2021/12/15 08:47:08;;;;;;;;;11.67;11.00;;;;;18.49;65.56;103053.81;5071131;28;8809;-64
2021/12/15 08:49:34;;;;;;;;;10.67;10.33;;;;;18.48;65.88;103053.81;5070378;28;8793;-66
2021/12/15 08:52:00;;;;;;;;;9.67;8.67;;;;;18.54;65.76;103054.88;5070902;28;9263;-65
2021/12/15 08:54:25;;;;;;;;;8.00;8.00;;;;;18.55;65.42;103064.59;5068187;28;9427;-65
2021/12/15 08:56:53;;;;;;;;;11.00;10.50;;;;;18.54;65.46;103060.16;5069329;28;8818;-65
2021/12/15 08:59:18;;;;;;;;;10.50;9.50;;;;;18.54;65.47;103064.56;5067654;28;9705;-65
2021/12/15 09:01:45;;;;;;;;;10.33;8.33;;;;;18.54;65.30;103067.19;5072863;28;9432;-65
2021/12/15 09:04:13;;;;;;;;;8.33;8.00;;;;;18.51;65.62;103073.31;5067947;28;8842;-64
2021/12/15 09:06:39;;;;;;;;;9.67;9.00;;;;;18.54;65.48;103076.03;5071651;28;10025;-65
2021/12/15 09:09:07;;;;;;;;;11.33;9.00;;;;;18.55;65.28;103084.88;5090761;28;9184;-65
2021/12/15 09:11:33;;;;;;;;;11.67;10.00;;;;;18.53;65.44;103079.53;5070662;28;9032;-65
2021/12/15 09:14:00;;;;;;;;;9.67;9.67;;;;;18.53;65.45;103084.81;5068942;28;9741;-65
2021/12/15 09:16:27;;;;;;;;;12.00;9.33;;;;;18.54;65.38;103073.38;5070610;28;8956;-65
2021/12/15 09:18:55;;;;;;;;;11.33;11.33;;;;;18.55;65.28;103085.78;5048597;28;11253;-64
2021/12/15 09:21:23;;;;;;;;;8.67;8.67;;;;;18.55;65.40;103084.88;5050386;28;9035;-64
2021/12/15 09:23:49;;;;;;;;;9.67;7.33;;;;;18.57;64.94;103088.44;5049517;28;9165;-65
2021/12/15 09:26:15;;;;;;;;;10.50;9.25;;;;;18.54;64.96;103086.63;5049406;28;9315;-65
2021/12/15 09:28:41;;;;;;;;;9.67;8.00;;;;;18.56;65.30;103086.66;5050193;28;9533;-64
2021/12/15 09:31:08;;;;;;;;;10.33;9.67;;;;;18.55;64.95;103088.41;5050283;28;8855;-64
2021/12/15 09:33:36;;;;;;;;;11.33;9.33;;;;;18.56;65.21;103091.97;5049903;28;8977;-65
2021/12/15 09:36:03;;;;;;;;;7.67;7.67;;;;;18.52;64.86;103093.59;5047555;28;9213;-65
2021/12/15 09:38:29;;;;;;;;;8.67;7.67;;;;;18.54;65.27;103102.50;5050694;28;9177;-65
2021/12/15 09:40:59;;;;;;;;;8.33;7.67;;;;;18.56;64.82;103103.41;5050517;28;9169;-64
2021/12/15 09:43:28;;;;;;;;;6.00;5.67;;;;;18.59;65.03;103106.16;5050013;28;9252;-66
2021/12/15 09:46:29;;;;;;;;;9.00;9.00;;;;;18.44;64.98;103091.63;5049485;28;10900;-67
2021/12/15 09:57:22;;;;;;;;;6.00;6.00;;;;;18.59;64.69;103129.97;5065328;28;8880;-67
2021/12/15 10:02:41;;;;;;;;;7.33;7.33;;;;;18.58;64.79;103136.13;5072577;28;8907;-64
2021/12/15 10:05:29;;;;;;;;;7.67;6.67;;;;;18.59;64.84;103132.63;5069027;28;9166;-64
2021/12/15 10:19:28;;;;;;;;;7.00;6.67;;;;;18.61;64.56;103138.81;5050802;28;9025;-66
2021/12/15 10:22:06;;;;;;;;;7.67;7.67;;;;;18.57;64.65;103134.31;5054198;28;9041;-64
2021/12/15 10:24:37;;;;;;;;;6.00;5.67;;;;;18.60;64.56;103137.03;5054947;28;9109;-65
2021/12/15 10:27:06;;;;;;;;;8.67;7.67;;;;;18.61;64.32;103133.53;5069563;28;9037;-65
2021/12/15 10:29:31;;;;;;;;;6.00;6.00;;;;;18.61;64.64;103141.47;5068909;28;9145;-65
2021/12/15 10:32:00;;;;;;;;;6.67;5.00;;;;;18.63;64.35;103144.16;5069321;28;9124;-65
2021/12/15 10:34:25;;;;;;;;;6.00;6.00;;;;;18.62;64.31;103145.91;5062878;28;8811;-65
2021/12/15 10:36:51;;;;;;;;;7.67;7.00;;;;;18.60;64.46;103137.03;5060163;28;9216;-64
2021/12/15 10:39:21;;;;;;;;;5.67;5.67;;;;;18.62;64.62;103135.34;5069783;28;8750;-65
2021/12/15 10:41:48;;;;;;;;;12.75;12.75;;;;;18.64;64.66;103135.34;5069200;28;8896;-65
2021/12/15 10:44:24;;;;;;;;;46.75;39.75;;;;;18.63;64.27;103137.09;5064542;28;9432;-66
2021/12/15 10:46:55;;;;;;;;;73.25;59.75;;;;;18.60;64.49;103121.16;5052647;28;10684;-65
2021/12/15 10:49:26;;;;;;;;;90.00;78.25;;;;;18.64;64.60;103132.72;5052402;28;11474;-64
2021/12/15 10:52:03;;;;;;;;;108.75;98.25;;;;;18.66;64.73;103137.19;5052656;28;11591;-65
2021/12/15 10:54:32;;;;;;;;;86.33;82.67;;;;;18.63;64.35;103142.38;5052008;28;11518;-65
2021/12/15 10:57:05;;;;;;;;;110.33;103.67;;;;;18.54;64.59;103123.66;5052458;28;8812;-65
2021/12/15 10:59:34;;;;;;;;;110.00;100.50;;;;;18.65;64.53;103132.75;5052720;28;11553;-65
2021/12/15 11:02:09;;;;;;;;;111.50;99.00;;;;;18.64;64.68;103136.25;5052880;28;11538;-65
2021/12/15 11:04:57;;;;;;;;;110.75;98.50;;;;;18.65;64.37;103134.50;5052041;28;11560;-64
2021/12/15 11:07:35;;;;;;;;;109.00;100.25;;;;;18.59;64.58;103137.91;5052007;28;11553;-64
2021/12/15 11:10:12;;;;;;;;;98.75;91.75;;;;;18.59;64.63;103139.66;5052120;28;11627;-65
2021/12/15 11:12:44;;;;;;;;;96.25;86.50;;;;;18.60;64.24;103136.13;5052722;28;11523;-64
2021/12/15 11:15:12;;;;;;;;;96.25;89.25;;;;;18.60;64.26;103141.41;5052249;28;11510;-65
2021/12/15 11:17:43;;;;;;;;;83.00;79.00;;;;;18.56;64.48;103129.00;5050803;28;11514;-65
2021/12/15 11:20:20;;;;;;;;;93.00;82.50;;;;;18.59;64.30;103144.94;5052798;28;11548;-65
2021/12/15 11:22:55;;;;;;;;;82.25;74.00;;;;;18.55;64.34;103133.41;5052016;28;12288;-65
2021/12/15 11:25:50;;;;;;;;;81.50;72.00;;;;;18.55;64.51;103130.75;5051020;28;11514;-66
2021/12/15 11:28:26;;;;;;;;;83.50;75.75;;;;;18.54;64.42;103131.59;5051286;28;11514;-63
2021/12/15 11:31:14;;;;;;;;;80.75;63.50;;;;;18.58;63.94;103138.75;5050067;28;11750;-65
2021/12/15 11:33:48;;;;;;;;;75.25;63.25;;;;;18.55;64.13;103132.50;5050643;28;11540;-64
2021/12/15 11:36:27;;;;;;;;;73.75;58.00;;;;;18.57;64.17;103136.06;5051605;28;11568;-64
2021/12/15 11:39:01;;;;;;;;;74.25;58.25;;;;;18.58;63.96;103143.16;5051450;28;12405;-65
2021/12/15 11:41:36;;;;;;;;;70.75;55.25;;;;;18.60;63.91;103142.31;5050619;28;11619;-64
2021/12/15 11:44:02;;;;;;;;;67.25;54.00;;;;;18.55;63.76;103137.78;5051962;28;11494;-65
2021/12/15 11:46:37;;;;;;;;;70.00;55.75;;;;;18.56;63.96;103137.81;5052006;28;11518;-65
2021/12/15 11:49:13;;;;;;;;;73.50;57.50;;;;;18.57;63.76;103136.06;5051571;28;8780;-64
2021/12/15 11:51:44;;;;;;;;;67.25;53.50;;;;;18.57;63.98;103131.66;5051695;28;11560;-65
2021/12/15 11:54:26;;;;;;;;;69.00;54.25;;;;;18.59;63.74;103140.56;5052342;28;11536;-65
2021/12/15 11:57:06;;;;;;;;;66.50;53.00;;;;;18.55;63.60;103133.41;5051462;28;11472;-65
2021/12/15 11:59:34;;;;;;;;;68.00;53.50;;;;;18.55;63.60;103136.03;5051374;28;11413;-66
2021/12/15 12:02:07;;;;;;;;;64.50;51.25;;;;;18.54;63.90;103114.81;5050555;28;11432;-66
2021/12/15 12:04:40;;;;;;;;;62.50;50.25;;;;;18.62;63.50;103137.09;5050501;28;11424;-65
2021/12/15 12:07:27;;;;;;;;;63.75;50.00;;;;;18.57;63.66;103139.59;5050934;28;11393;-65
2021/12/15 12:10:20;;;;;;;;;59.25;48.00;;;;;18.64;63.76;103141.53;5051613;28;11594;-66
2021/12/15 12:12:53;;;;;;;;;59.00;48.00;;;;;18.64;63.75;103138.00;5050725;28;11235;-65
2021/12/15 12:15:21;;;;;;;;;64.75;50.25;;;;;18.63;63.75;103125.66;5050844;28;11403;-64
2021/12/15 12:17:51;;;;;;;;;64.25;49.25;;;;;18.70;63.54;103130.22;5051107;28;11428;-65
2021/12/15 12:20:38;;;;;;;;;60.00;47.50;;;;;18.58;63.43;103100.81;5051033;28;12239;-65
2021/12/15 12:23:08;;;;;;;;;59.00;47.50;;;;;18.64;63.67;103109.78;5067372;28;11458;-64
2021/12/15 12:25:38;;;;;;;;;57.75;45.75;;;;;18.68;63.94;103124.00;5071453;28;11491;-66
2021/12/15 12:28:07;;;;;;;;;55.00;43.75;;;;;18.62;63.91;103105.31;5063113;28;11178;-65
2021/12/15 12:30:40;;;;;;;;;56.75;45.75;;;;;18.65;63.73;103100.09;5050290;28;11203;-66
2021/12/15 12:33:09;;;;;;;;;51.75;42.00;;;;;18.68;63.78;103113.41;5053770;28;11075;-66
2021/12/15 12:35:40;;;;;;;;;55.75;45.50;;;;;18.69;63.64;103110.81;5070808;28;10935;-65
2021/12/15 12:38:11;;;;;;;;;52.50;41.50;;;;;18.68;63.63;103116.94;5070521;28;11024;-65
2021/12/15 12:40:47;;;;;;;;;51.00;41.25;;;;;18.66;63.61;103115.13;5070271;28;11076;-66
2021/12/15 12:43:21;;;;;;;;;54.00;43.00;;;;;18.67;63.86;103114.28;5068995;28;11043;-66
2021/12/15 12:46:20;;;;;;;;;55.00;43.75;;;;;18.67;63.80;103106.34;5069944;28;10922;-66